Pagrindinis puslapis
METAR-TAF:

METAR-TAF

Oro uostai :

Manta, Ekvadoras

platuma: 00-57S, ilguma: 080-41W, Aukštis: 13 m

Dabartinis oras

Ataskaita buvo paskelbta 4 valandos ir 5 minutes, ne 01:00 UTC
Vėjas 8 kt iš Vakarų/Šiaurės Vakarų
Temperatūra 27°C
Drėgmė 84%
Slėgis 1007 hPa
Matomumas 10 km arba daugiau
Su prošvaistėmis ne aukštis 1600 ft

METAR: SEMT 170100Z 29008KT 9999 BKN016 27/24 Q1007

Laikas: 00:05 (05:05 UTC)

Prognozė

Ataskaita buvo paskelbta 6 valandos ir 35 minutes, ne 22:30 UTC
Prognozė galioja nuo 17 metu 00 UTC su 17 metu 24 UTC
Vėjas 4 kt iš Pietų
Matomumas 10 km arba daugiau
Su prošvaistėmis ne aukštis 2000 ft
Su prošvaistėmis ne aukštis 10000 ft
Laikinai
nuo 17 metu 09 UTC su 17 metu 12 UTC
Matomumas: 6000 m
Apsiniaukę ne aukštis 2000 ft
lietus
Nuo 17 metu 1400 UTC
Vėjas 8 kt iš Vakarų
Matomumas 10 km arba daugiau
Su prošvaistėmis ne aukštis 2000 ft

TAF: SEMT 162230Z 1700/1724 19004KT 9999 BKN020 BKN100 TEMPO 1709/1712 6000 RA OVC020 FM171400 27008KT 9999 BKN020 TX30/1720Z TN24/1710Z

Orai ataskaitas ir orų prognozės (METAR, TAF).

turimą stotys yra geltonos ir raudonos taškus žemėlapyje.

Perkelti pele per norėdami pamatyti stoties vardą.

Tada spustelėkite, norėdami matyti oro stebėjimo ir prognozės.

Norėdami pakeisti žemėlapį: spustelėkite ant žalios mygtukų su juodo kryžiaus žemyn,; žalią mygtuką su brūkšneliu, jei norite nutolinti; arba žalių rodyklių gretimoms žemėlapius.


METAR-TAF: